createdAt,value
2023-04-08T00:02:34.444Z,98177.00
2023-04-08T00:06:36.636Z,98171.00
2023-04-08T00:10:37.698Z,98177.00
2023-04-08T00:14:40.997Z,98181.00
2023-04-08T00:18:42.350Z,98182.00
2023-04-08T00:22:43.521Z,98180.00
2023-04-08T00:26:44.855Z,98180.00
2023-04-08T00:30:46.528Z,98180.00
2023-04-08T00:34:47.801Z,98181.00
2023-04-08T00:38:49.372Z,98179.00
2023-04-08T00:42:50.725Z,98175.00
2023-04-08T00:46:51.936Z,98177.00
2023-04-08T00:50:53.299Z,98181.00
2023-04-08T00:54:55.622Z,98184.00
2023-04-08T00:58:58.508Z,98182.00
2023-04-08T01:03:18.918Z,98183.00
2023-04-08T01:07:27.718Z,98184.00
2023-04-08T01:11:31.121Z,98183.00
2023-04-08T01:15:35.059Z,98187.00
2023-04-08T01:19:39.379Z,98184.00
2023-04-08T01:23:46.984Z,98188.00
2023-04-08T01:27:49.382Z,98183.00
2023-04-08T01:31:53.814Z,98191.00
2023-04-08T01:35:57.316Z,98186.00
2023-04-08T01:40:01.043Z,98181.00
2023-04-08T01:44:03.528Z,98184.00
2023-04-08T01:48:06.915Z,98188.00
2023-04-08T01:52:09.321Z,98188.00
2023-04-08T01:56:13.765Z,98185.00
2023-04-08T02:00:18.781Z,98186.00
2023-04-08T02:04:20.050Z,98074.00
2023-04-08T02:08:21.511Z,98187.00
2023-04-08T02:12:22.912Z,98183.00
2023-04-08T02:16:27.951Z,98189.00
2023-04-08T02:20:35.861Z,98192.00
2023-04-08T02:24:38.293Z,98188.00
2023-04-08T02:28:41.742Z,98191.00
2023-04-08T02:32:45.211Z,98192.00
2023-04-08T02:36:47.532Z,98203.00
2023-04-08T02:40:50.111Z,98207.00
2023-04-08T02:44:51.582Z,98206.00
2023-04-08T02:48:53.165Z,98202.00
2023-04-08T02:52:55.728Z,98214.00
2023-04-08T02:56:57.052Z,98209.00
2023-04-08T03:01:00.503Z,98206.00
2023-04-08T03:05:01.759Z,98209.00
2023-04-08T03:09:02.966Z,98216.00
2023-04-08T03:13:04.129Z,98203.00
2023-04-08T03:17:05.293Z,98207.00
2023-04-08T03:21:06.559Z,98214.00
2023-04-08T03:25:08.271Z,98210.00
2023-04-08T03:29:09.871Z,98212.00
2023-04-08T03:33:10.981Z,98214.00
2023-04-08T03:37:12.260Z,98218.00
2023-04-08T03:41:13.427Z,98225.00
2023-04-08T03:45:14.681Z,98230.00
2023-04-08T03:49:15.681Z,98225.00
2023-04-08T03:53:16.831Z,98220.00
2023-04-08T03:57:18.071Z,98222.00
2023-04-08T04:01:19.117Z,98222.00
2023-04-08T04:05:20.489Z,98228.00
2023-04-08T04:09:21.647Z,98229.00
2023-04-08T04:13:23.126Z,98231.00
2023-04-08T04:17:24.561Z,98234.00
2023-04-08T04:21:26.586Z,98236.00
2023-04-08T04:25:27.898Z,98232.00
2023-04-08T04:29:31.307Z,98230.00
2023-04-08T04:33:32.541Z,98235.00
2023-04-08T04:37:33.560Z,98233.00
2023-04-08T04:41:36.511Z,98246.00
2023-04-08T04:45:37.678Z,98235.00
2023-04-08T04:49:39.552Z,98229.00
2023-04-08T04:53:40.784Z,98239.00
2023-04-08T04:57:41.764Z,98241.00
2023-04-08T05:01:42.866Z,98241.00
2023-04-08T05:05:43.944Z,98239.00
2023-04-08T05:09:45.129Z,98241.00
2023-04-08T05:13:46.265Z,98249.00
2023-04-08T05:17:47.331Z,98253.00
2023-04-08T05:21:48.352Z,98261.00
2023-04-08T05:25:49.510Z,98261.00
2023-04-08T05:29:51.068Z,98265.00
2023-04-08T05:33:52.084Z,98260.00
2023-04-08T05:37:53.299Z,98265.00
2023-04-08T05:41:54.946Z,98263.00
2023-04-08T05:45:56.305Z,98273.00
2023-04-08T05:49:57.433Z,98280.00
2023-04-08T05:53:58.879Z,98280.00
2023-04-08T05:58:00.199Z,98283.00
2023-04-08T06:02:01.512Z,98279.00
2023-04-08T06:06:02.663Z,98292.00
2023-04-08T06:10:05.363Z,98288.00
2023-04-08T06:14:06.422Z,98297.00
2023-04-08T06:18:07.553Z,98302.00
2023-04-08T06:22:08.783Z,98303.00
2023-04-08T06:26:10.161Z,98303.00
2023-04-08T06:30:11.775Z,98315.00
2023-04-08T06:34:12.911Z,98318.00
2023-04-08T06:38:14.153Z,98329.00
2023-04-08T06:42:15.415Z,98334.00
2023-04-08T06:46:16.578Z,98329.00
2023-04-08T06:50:17.907Z,98337.00
2023-04-08T06:54:19.136Z,98336.00
2023-04-08T06:58:20.469Z,98335.00
2023-04-08T07:02:22.315Z,98334.00
2023-04-08T07:06:23.627Z,98340.00
2023-04-08T07:10:24.931Z,98345.00
2023-04-08T07:14:26.190Z,98345.00
2023-04-08T07:18:27.513Z,98347.00
2023-04-08T07:22:28.724Z,98353.00
2023-04-08T07:26:29.973Z,98350.00
2023-04-08T07:30:31.251Z,98347.00
2023-04-08T07:34:37.582Z,98352.00
2023-04-08T07:38:39.568Z,98367.00
2023-04-08T07:42:41.098Z,98363.00
2023-04-08T07:46:42.548Z,98371.00
2023-04-08T07:51:08.622Z,98364.00
2023-04-08T07:54:48.610Z,98375.00
2023-04-08T07:58:52.059Z,98376.00
2023-04-08T08:02:53.345Z,98370.00
2023-04-08T08:06:54.633Z,98373.00
2023-04-08T08:10:55.881Z,98382.00
2023-04-08T08:14:58.503Z,98386.00
2023-04-08T08:18:59.706Z,98391.00
2023-04-08T08:23:00.966Z,98386.00
2023-04-08T08:27:03.968Z,98384.00
2023-04-08T08:31:05.618Z,98386.00
2023-04-08T08:35:07.821Z,98398.00
2023-04-08T08:39:09.082Z,98399.00
2023-04-08T08:43:10.998Z,98423.00
2023-04-08T08:47:12.137Z,98409.00
2023-04-08T08:51:13.897Z,98410.00
2023-04-08T08:55:31.546Z,98416.00
2023-04-08T08:59:18.550Z,98421.00
2023-04-08T09:03:24.796Z,98423.00
2023-04-08T09:07:27.480Z,98429.00
2023-04-08T09:11:28.740Z,98427.00
2023-04-08T09:15:29.945Z,98438.00
2023-04-08T09:19:31.174Z,98440.00
2023-04-08T09:23:50.897Z,98439.00
2023-04-08T09:27:53.422Z,98438.00
2023-04-08T09:31:57.726Z,98439.00
2023-04-08T09:35:59.154Z,98440.00
2023-04-08T09:40:00.900Z,98437.00
2023-04-08T09:44:04.766Z,98450.00
2023-04-08T09:48:16.416Z,98445.00
2023-04-08T09:52:23.566Z,98447.00
2023-04-08T09:56:28.502Z,98453.00
2023-04-08T10:00:38.106Z,98441.00
2023-04-08T10:04:42.924Z,98459.00
2023-04-08T10:08:44.642Z,98454.00
2023-04-08T10:12:46.012Z,98459.00
2023-04-08T10:16:47.569Z,98454.00
2023-04-08T10:20:49.096Z,98459.00
2023-04-08T10:25:19.843Z,98459.00
2023-04-08T10:29:30.690Z,98461.00
2023-04-08T10:33:34.149Z,98449.00
2023-04-08T10:37:35.372Z,98440.00
2023-04-08T10:41:48.554Z,98445.00
2023-04-08T10:45:52.923Z,98449.00
2023-04-08T10:49:54.033Z,98446.00
2023-04-08T10:53:55.308Z,98452.00
2023-04-08T10:58:00.531Z,98448.00
2023-04-08T11:02:02.061Z,98443.00
2023-04-08T11:06:03.573Z,98448.00
2023-04-08T11:10:05.532Z,98451.00
2023-04-08T11:14:07.551Z,98449.00
2023-04-08T11:18:08.813Z,98457.00
2023-04-08T11:22:12.476Z,98449.00
2023-04-08T11:26:14.982Z,98445.00
2023-04-08T11:30:16.566Z,98439.00
2023-04-08T11:34:24.885Z,98453.00
2023-04-08T11:38:26.077Z,98441.00
2023-04-08T11:42:30.214Z,98441.00
2023-04-08T11:46:31.665Z,98445.00
2023-04-08T11:50:33.078Z,98443.00
2023-04-08T11:54:36.090Z,98441.00
2023-04-08T11:58:37.145Z,98442.00
2023-04-08T12:02:38.171Z,98440.00
2023-04-08T12:06:40.986Z,98450.00
2023-04-08T12:10:41.945Z,98455.00
2023-04-08T12:14:43.096Z,98454.00
2023-04-08T12:18:44.320Z,98449.00
2023-04-08T12:22:45.321Z,98444.00
2023-04-08T12:26:46.558Z,98460.00
2023-04-08T12:30:47.754Z,98445.00
2023-04-08T12:34:48.802Z,98448.00
2023-04-08T12:38:50.143Z,98455.00
2023-04-08T12:42:51.656Z,98453.00
2023-04-08T12:46:52.660Z,98442.00
2023-04-08T12:50:53.599Z,98446.00
2023-04-08T12:54:54.746Z,98444.00
2023-04-08T12:58:57.112Z,98449.00
2023-04-08T13:02:58.273Z,98433.00
2023-04-08T13:07:00.450Z,98435.00
2023-04-08T13:11:01.522Z,98442.00
2023-04-08T13:15:03.270Z,98441.00
2023-04-08T13:19:04.571Z,98451.00
2023-04-08T13:23:05.977Z,98455.00
2023-04-08T13:27:07.359Z,98458.00
2023-04-08T13:31:08.691Z,98457.00
2023-04-08T13:35:10.175Z,98452.00
2023-04-08T13:39:11.411Z,98453.00
2023-04-08T13:43:12.462Z,98451.00
2023-04-08T13:47:13.487Z,98462.00
2023-04-08T13:51:14.570Z,98451.00
2023-04-08T13:55:16.152Z,98441.00
2023-04-08T13:59:17.218Z,98439.00
2023-04-08T14:03:18.925Z,98447.00
2023-04-08T14:07:20.005Z,98437.00
2023-04-08T14:11:21.415Z,98443.00
2023-04-08T14:15:22.540Z,98450.00
2023-04-08T14:19:24.046Z,98443.00
2023-04-08T14:23:25.639Z,98469.00
2023-04-08T14:27:27.417Z,98462.00
2023-04-08T14:31:28.690Z,98446.00
2023-04-08T14:35:30.311Z,98449.00
2023-04-08T14:39:31.368Z,98452.00
2023-04-08T14:43:32.597Z,98450.00
2023-04-08T14:47:33.726Z,98455.00
2023-04-08T14:51:36.666Z,98449.00
2023-04-08T14:55:38.158Z,98453.00
2023-04-08T14:59:39.158Z,98444.00
2023-04-08T15:03:40.366Z,98453.00
2023-04-08T15:07:42.324Z,98464.00
2023-04-08T15:11:43.454Z,98453.00
2023-04-08T15:15:44.788Z,98458.00
2023-04-08T15:19:47.391Z,98464.00
2023-04-08T15:23:48.588Z,98458.00
2023-04-08T15:27:49.619Z,98328.00
2023-04-08T15:31:52.038Z,98460.00
2023-04-08T15:35:53.804Z,98457.00
2023-04-08T15:39:54.822Z,98453.00
2023-04-08T15:43:56.175Z,98454.00
2023-04-08T15:47:57.400Z,98456.00
2023-04-08T15:51:59.009Z,98462.00
2023-04-08T15:56:00.912Z,98464.00
2023-04-08T16:00:08.297Z,98466.00
2023-04-08T16:04:09.734Z,98467.00
2023-04-08T16:08:11.075Z,98469.00
2023-04-08T16:12:14.181Z,98467.00
2023-04-08T16:16:15.456Z,98467.00
2023-04-08T16:20:18.244Z,98474.00
2023-04-08T16:24:20.162Z,98492.00
2023-04-08T16:28:21.617Z,98477.00
2023-04-08T16:32:23.353Z,98472.00
2023-04-08T16:36:24.786Z,98482.00
2023-04-08T16:40:26.255Z,98483.00
2023-04-08T16:44:27.413Z,98494.00
2023-04-08T16:48:28.668Z,98507.00
2023-04-08T16:52:30.384Z,98493.00
2023-04-08T16:56:31.643Z,98504.00
2023-04-08T17:00:32.999Z,98495.00
2023-04-08T17:04:34.414Z,98511.00
2023-04-08T17:08:35.932Z,98500.00
2023-04-08T17:12:37.529Z,98514.00
2023-04-08T17:16:39.072Z,98511.00
2023-04-08T17:20:40.176Z,98515.00
2023-04-08T17:24:41.269Z,98517.00
2023-04-08T17:28:42.761Z,98517.00
2023-04-08T17:32:43.991Z,98523.00
2023-04-08T17:36:45.525Z,98518.00
2023-04-08T17:40:46.890Z,98526.00
2023-04-08T17:44:48.057Z,98534.00
2023-04-08T17:48:49.110Z,98381.00
2023-04-08T17:52:50.736Z,98542.00
2023-04-08T17:56:52.045Z,98548.00
2023-04-08T18:00:53.685Z,98542.00
2023-04-08T18:04:59.564Z,98545.00
2023-04-08T18:09:02.983Z,98551.00
2023-04-08T18:17:07.782Z,98556.00
2023-04-08T18:21:09.064Z,98573.00
2023-04-08T18:25:10.553Z,98573.00
2023-04-08T18:29:11.988Z,98570.00
2023-04-08T18:33:13.295Z,98576.00
2023-04-08T18:37:16.260Z,98587.00
2023-04-08T18:41:18.100Z,98589.00
2023-04-08T18:45:19.346Z,98590.00
2023-04-08T18:49:20.611Z,98603.00
2023-04-08T18:53:22.784Z,98602.00
2023-04-08T18:57:24.217Z,98594.00
2023-04-08T19:01:25.349Z,98596.00
2023-04-08T19:05:26.880Z,98599.00
2023-04-08T19:09:28.338Z,98601.00
2023-04-08T19:13:30.201Z,98604.00
2023-04-08T19:17:31.396Z,98604.00
2023-04-08T19:21:34.520Z,98615.00
2023-04-08T19:25:35.942Z,98611.00
2023-04-08T19:29:37.011Z,98615.00
2023-04-08T19:33:38.128Z,98625.00
2023-04-08T19:37:39.944Z,98626.00
2023-04-08T19:41:41.243Z,98620.00
2023-04-08T19:45:42.766Z,98621.00
2023-04-08T19:49:44.015Z,98624.00
2023-04-08T19:53:46.166Z,98624.00
2023-04-08T19:57:47.755Z,98625.00
2023-04-08T20:01:49.020Z,98628.00
2023-04-08T20:05:50.638Z,98626.00
2023-04-08T20:09:52.159Z,98634.00
2023-04-08T20:13:53.710Z,98631.00
2023-04-08T20:17:54.901Z,98632.00
2023-04-08T20:21:56.914Z,98635.00
2023-04-08T20:25:58.954Z,98635.00
2023-04-08T20:30:00.685Z,98638.00
2023-04-08T20:34:03.133Z,98638.00
2023-04-08T20:38:05.103Z,98650.00
2023-04-08T20:42:08.492Z,98635.00
2023-04-08T20:46:09.959Z,98634.00
2023-04-08T20:50:12.113Z,98637.00
2023-04-08T20:54:13.849Z,98636.00
2023-04-08T20:58:15.022Z,98641.00
2023-04-08T21:02:18.323Z,98637.00
2023-04-08T21:06:20.689Z,98626.00
2023-04-08T21:10:22.126Z,98647.00
2023-04-08T21:14:23.417Z,98636.00
2023-04-08T21:18:24.837Z,98637.00
2023-04-08T21:22:26.009Z,98645.00
2023-04-08T21:26:27.335Z,98641.00
2023-04-08T21:30:28.798Z,98638.00
2023-04-08T21:34:30.620Z,98638.00
2023-04-08T21:38:31.813Z,98643.00
2023-04-08T21:42:33.175Z,98534.00
2023-04-08T21:46:34.286Z,98648.00
2023-04-08T21:50:36.751Z,98648.00
2023-04-08T21:54:38.382Z,98643.00
2023-04-08T21:58:39.638Z,98639.00
2023-04-08T22:02:41.143Z,98643.00
2023-04-08T22:06:42.272Z,98647.00
2023-04-08T22:10:43.493Z,98645.00
2023-04-08T22:14:44.461Z,98645.00
2023-04-08T22:18:45.988Z,98646.00
2023-04-08T22:22:47.177Z,98645.00
2023-04-08T22:26:48.431Z,98638.00
2023-04-08T22:30:49.484Z,98643.00
2023-04-08T22:34:50.536Z,98644.00
2023-04-08T22:38:51.635Z,98639.00
2023-04-08T22:42:52.956Z,98631.00
2023-04-08T22:46:54.090Z,98631.00
2023-04-08T22:50:55.226Z,98633.00
2023-04-08T22:54:56.539Z,98627.00
2023-04-08T22:58:57.648Z,98628.00
2023-04-08T23:03:00.126Z,98633.00
2023-04-08T23:07:01.399Z,98632.00
2023-04-08T23:11:02.527Z,98637.00
2023-04-08T23:15:04.167Z,98642.00
2023-04-08T23:19:05.301Z,98634.00
2023-04-08T23:23:06.575Z,98635.00
2023-04-08T23:27:08.165Z,98632.00
2023-04-08T23:31:09.234Z,98643.00
2023-04-08T23:35:10.223Z,98647.00
2023-04-08T23:39:11.230Z,98642.00
2023-04-08T23:43:12.409Z,98638.00
2023-04-08T23:47:13.389Z,98634.00
2023-04-08T23:51:14.943Z,98637.00
2023-04-08T23:55:16.339Z,98645.00
2023-04-08T23:59:17.638Z,98632.00
